createdAt,value
2023-02-03T00:00:54.495Z,-21
2023-02-03T00:02:00.675Z,-19
2023-02-03T00:03:06.954Z,-20
2023-02-03T00:04:13.223Z,-20
2023-02-03T00:05:19.498Z,-21
2023-02-03T00:06:25.765Z,-21
2023-02-03T00:07:32.039Z,-21
2023-02-03T00:08:37.333Z,-21
2023-02-03T00:09:43.615Z,-20
2023-02-03T00:10:49.922Z,-19
2023-02-03T00:11:56.207Z,-21
2023-02-03T00:13:02.412Z,-18
2023-02-03T00:14:08.685Z,-20
2023-02-03T00:15:14.962Z,-19
2023-02-03T00:16:21.228Z,-20
2023-02-03T00:17:27.500Z,-20
2023-02-03T00:18:33.780Z,-19
2023-02-03T00:19:40.054Z,-21
2023-02-03T00:20:46.363Z,-21
2023-02-03T00:21:52.588Z,-19
2023-02-03T00:22:58.853Z,-19
2023-02-03T00:24:05.129Z,-20
2023-02-03T00:25:10.422Z,-20
2023-02-03T00:26:16.696Z,-21
2023-02-03T00:27:23.041Z,-21
2023-02-03T00:28:29.235Z,-21
2023-02-03T00:29:35.571Z,-20
2023-02-03T00:30:41.886Z,-21
2023-02-03T00:31:48.092Z,-21
2023-02-03T00:32:54.389Z,-21
2023-02-03T00:34:00.777Z,-21
2023-02-03T00:35:06.889Z,-20
2023-02-03T00:36:13.142Z,-21
2023-02-03T00:37:19.415Z,-20
2023-02-03T00:38:25.680Z,-20
2023-02-03T00:39:30.977Z,-19
2023-02-03T00:40:37.255Z,-20
2023-02-03T00:41:43.569Z,-20
2023-02-03T00:42:49.807Z,-21
2023-02-03T00:43:56.124Z,-20
2023-02-03T00:45:02.348Z,-20
2023-02-03T00:46:08.655Z,-19
2023-02-03T00:47:14.877Z,-21
2023-02-03T00:48:21.216Z,-20
2023-02-03T00:49:27.418Z,-19
2023-02-03T00:50:33.765Z,-20
2023-02-03T00:51:40.102Z,-19
2023-02-03T00:52:46.236Z,-20
2023-02-03T00:53:51.681Z,-20
2023-02-03T00:54:57.863Z,-19
2023-02-03T00:56:04.092Z,-18
2023-02-03T00:57:10.341Z,-21
2023-02-03T00:58:16.622Z,-19
2023-02-03T00:59:22.930Z,-19
2023-02-03T01:00:29.172Z,-19
2023-02-03T01:01:35.442Z,-20
2023-02-03T01:02:41.703Z,-19
2023-02-03T01:03:48.017Z,-18
2023-02-03T01:04:54.246Z,-20
2023-02-03T01:06:00.528Z,-19
2023-02-03T01:07:06.802Z,-20
2023-02-03T01:08:12.092Z,-20
2023-02-03T01:09:18.361Z,-21
2023-02-03T01:10:24.638Z,-19
2023-02-03T01:11:30.932Z,-20
2023-02-03T01:12:37.286Z,-19
2023-02-03T01:13:43.432Z,-19
2023-02-03T01:14:49.715Z,-19
2023-02-03T01:15:56.039Z,-20
2023-02-03T01:17:02.268Z,-20
2023-02-03T01:18:08.569Z,-19
2023-02-03T01:19:14.804Z,-20
2023-02-03T01:20:21.117Z,-20
2023-02-03T01:21:27.391Z,-21
2023-02-03T01:22:32.789Z,-20
2023-02-03T01:23:38.897Z,-20
2023-02-03T01:24:45.168Z,-19
2023-02-03T01:25:51.457Z,-18
2023-02-03T01:26:57.774Z,-20
2023-02-03T01:28:04.113Z,-20
2023-02-03T01:29:10.256Z,-21
2023-02-03T01:30:16.530Z,-19
2023-02-03T01:31:22.957Z,-21
2023-02-03T01:32:29.156Z,-21
2023-02-03T01:33:35.513Z,-21
2023-02-03T01:34:41.750Z,-20
2023-02-03T01:35:47.972Z,-18
2023-02-03T01:36:53.180Z,-18
2023-02-03T01:37:59.502Z,-21
2023-02-03T01:39:05.735Z,-19
2023-02-03T01:40:12.030Z,-21
2023-02-03T01:41:18.310Z,-20
2023-02-03T01:42:24.599Z,-19
2023-02-03T01:43:30.836Z,-18
2023-02-03T01:44:37.153Z,-19
2023-02-03T01:45:43.362Z,-19
2023-02-03T01:46:49.634Z,-20
2023-02-03T01:47:56.023Z,-18
2023-02-03T01:49:02.190Z,-19
2023-02-03T01:50:08.458Z,-18
2023-02-03T01:51:14.732Z,-18
2023-02-03T01:52:21.063Z,-19
2023-02-03T01:53:26.277Z,-18
2023-02-03T01:54:32.584Z,-18
2023-02-03T01:55:38.887Z,-21
2023-02-03T01:56:45.126Z,-19
2023-02-03T01:57:51.366Z,-19
2023-02-03T01:58:57.642Z,-21
2023-02-03T02:00:03.902Z,-20
2023-02-03T02:01:10.188Z,-19
2023-02-03T02:02:16.452Z,-18
2023-02-03T02:03:22.732Z,-21
2023-02-03T02:04:29.004Z,-18
2023-02-03T02:05:35.272Z,-20
2023-02-03T02:06:41.544Z,-18
2023-02-03T02:07:47.870Z,-19
2023-02-03T02:08:53.202Z,-20
2023-02-03T02:09:59.406Z,-19
2023-02-03T02:11:05.724Z,-20
2023-02-03T02:12:11.924Z,-19
2023-02-03T02:13:18.229Z,-20
2023-02-03T02:14:24.522Z,-18
2023-02-03T02:15:30.740Z,-19
2023-02-03T02:16:37.010Z,-19
2023-02-03T02:17:43.290Z,-18
2023-02-03T02:18:49.549Z,-20
2023-02-03T02:19:55.825Z,-20
2023-02-03T02:21:02.115Z,-19
2023-02-03T02:22:08.418Z,-19
2023-02-03T02:23:13.670Z,-20
2023-02-03T02:24:19.987Z,-19
2023-02-03T02:25:26.201Z,-18
2023-02-03T02:26:32.473Z,-20
2023-02-03T02:27:38.741Z,-19
2023-02-03T02:28:45.045Z,-18
2023-02-03T02:29:51.316Z,-19
2023-02-03T02:30:57.740Z,-20
2023-02-03T02:32:03.923Z,-20
2023-02-03T02:33:10.223Z,-20
2023-02-03T02:34:16.524Z,-18
2023-02-03T02:35:22.686Z,-20
2023-02-03T02:36:29.063Z,-19
2023-02-03T02:37:34.248Z,-18
2023-02-03T02:38:40.538Z,-18
2023-02-03T02:39:46.761Z,-19
2023-02-03T02:40:53.150Z,-18
2023-02-03T02:41:59.408Z,-18
2023-02-03T02:43:05.694Z,-19
2023-02-03T02:44:11.980Z,-18
2023-02-03T02:45:17.136Z,-19
2023-02-03T02:46:22.449Z,-18
2023-02-03T02:47:28.700Z,-19
2023-02-03T02:48:34.001Z,-18
2023-02-03T02:49:39.350Z,-18
2023-02-03T02:50:45.601Z,-18
2023-02-03T02:51:51.843Z,-20
2023-02-03T02:52:58.129Z,-18
2023-02-03T02:54:04.413Z,-18
2023-02-03T02:55:10.649Z,-19
2023-02-03T02:56:16.922Z,-17
2023-02-03T02:57:23.216Z,-18
2023-02-03T02:58:29.511Z,-19
2023-02-03T02:59:35.738Z,-19
2023-02-03T03:00:42.043Z,-18
2023-02-03T03:01:48.288Z,-20
2023-02-03T03:02:54.594Z,-18
2023-02-03T03:03:59.845Z,-18
2023-02-03T03:05:06.129Z,-18
2023-02-03T03:06:12.396Z,-18
2023-02-03T03:07:18.659Z,-19
2023-02-03T03:08:24.954Z,-18
2023-02-03T03:09:31.207Z,-17
2023-02-03T03:10:37.508Z,-18
2023-02-03T03:11:43.743Z,-18
2023-02-03T03:12:50.023Z,-16
2023-02-03T03:13:56.351Z,-18
2023-02-03T03:15:02.614Z,-18
2023-02-03T03:16:08.834Z,-19
2023-02-03T03:17:15.105Z,-18
2023-02-03T03:18:20.407Z,-18
2023-02-03T03:19:26.704Z,-18
2023-02-03T03:20:32.959Z,-18
2023-02-03T03:21:38.269Z,-19
2023-02-03T03:22:44.566Z,-18
2023-02-03T03:23:50.792Z,-19
2023-02-03T03:24:57.063Z,-18
2023-02-03T03:26:03.340Z,-19
2023-02-03T03:27:09.592Z,-18
2023-02-03T03:28:15.905Z,-18
2023-02-03T03:29:22.154Z,-18
2023-02-03T03:30:28.406Z,-19
2023-02-03T03:31:34.780Z,-19
2023-02-03T03:32:40.955Z,-18
2023-02-03T03:33:47.273Z,-18
2023-02-03T03:34:53.501Z,-19
2023-02-03T03:35:58.791Z,-18
2023-02-03T03:37:05.058Z,-19
2023-02-03T03:38:11.361Z,-18
2023-02-03T03:39:17.606Z,-18
2023-02-03T03:40:23.876Z,-19
2023-02-03T03:41:30.148Z,-18
2023-02-03T03:42:36.538Z,-18
2023-02-03T03:43:42.710Z,-19
2023-02-03T03:44:48.983Z,-18
2023-02-03T03:45:55.242Z,-18
2023-02-03T03:47:01.509Z,-20
2023-02-03T03:48:07.801Z,-19
2023-02-03T03:49:14.107Z,-18
2023-02-03T03:50:19.335Z,-19
2023-02-03T03:51:25.628Z,-18
2023-02-03T03:52:31.937Z,-19
2023-02-03T03:53:38.161Z,-18
2023-02-03T03:54:44.423Z,-18
2023-02-03T03:55:50.697Z,-18
2023-02-03T03:56:56.981Z,-17
2023-02-03T03:58:03.248Z,-19
2023-02-03T03:59:09.520Z,-18
2023-02-03T04:00:15.780Z,-18
2023-02-03T04:01:22.058Z,-18
2023-02-03T04:02:28.361Z,-18
2023-02-03T04:03:34.597Z,-19
2023-02-03T04:04:40.874Z,-18
2023-02-03T04:05:46.168Z,-19
2023-02-03T04:06:52.434Z,-19
2023-02-03T04:07:58.705Z,-19
2023-02-03T04:09:05.031Z,-19
2023-02-03T04:10:11.252Z,-19
2023-02-03T04:11:17.601Z,-18
2023-02-03T04:12:23.797Z,-20
2023-02-03T04:13:30.075Z,-19
2023-02-03T04:14:36.389Z,-20
2023-02-03T04:15:42.793Z,-18
2023-02-03T04:16:48.924Z,-19
2023-02-03T04:17:55.220Z,-19
2023-02-03T04:19:01.430Z,-19
2023-02-03T04:20:06.723Z,-20
2023-02-03T04:21:13.012Z,-18
2023-02-03T04:22:19.267Z,-18
2023-02-03T04:23:25.541Z,-18
2023-02-03T04:24:31.831Z,-18
2023-02-03T04:25:38.072Z,-18
2023-02-03T04:26:44.396Z,-19
2023-02-03T04:27:50.624Z,-21
2023-02-03T04:28:56.889Z,-20
2023-02-03T04:30:03.162Z,-19
2023-02-03T04:31:09.459Z,-20
2023-02-03T04:32:14.743Z,-19
2023-02-03T04:33:20.025Z,-19
2023-02-03T04:34:25.330Z,-18
2023-02-03T04:35:30.612Z,-18
2023-02-03T04:36:36.887Z,-19
2023-02-03T04:37:43.159Z,-18
2023-02-03T04:38:49.435Z,-19
2023-02-03T04:39:55.730Z,-18
2023-02-03T04:41:02.008Z,-18
2023-02-03T04:42:08.249Z,-19
2023-02-03T04:43:14.534Z,-19
2023-02-03T04:44:20.804Z,-18
2023-02-03T04:45:27.077Z,-18
2023-02-03T04:46:33.336Z,-19
2023-02-03T04:47:39.636Z,-18
2023-02-03T04:48:45.879Z,-17
2023-02-03T04:49:51.164Z,-17
2023-02-03T04:50:57.466Z,-18
2023-02-03T04:52:03.805Z,-18
2023-02-03T04:53:10.004Z,-18
2023-02-03T04:54:16.288Z,-19
2023-02-03T04:55:22.526Z,-18
2023-02-03T04:56:28.797Z,-18
2023-02-03T04:57:34.121Z,-18
2023-02-03T04:58:39.393Z,-18
2023-02-03T04:59:44.684Z,-18
2023-02-03T05:00:49.986Z,-18
2023-02-03T05:01:56.246Z,-18
2023-02-03T05:03:02.544Z,-19
2023-02-03T05:04:08.800Z,-18
2023-02-03T05:05:15.067Z,-18
2023-02-03T05:06:21.334Z,-18
2023-02-03T05:07:27.707Z,-19
2023-02-03T05:08:33.967Z,-21
2023-02-03T05:09:40.148Z,-19
2023-02-03T05:10:46.445Z,-19
2023-02-03T05:11:52.686Z,-18
2023-02-03T05:12:59.060Z,-18
2023-02-03T05:14:05.243Z,-15
2023-02-03T05:15:10.537Z,-18
2023-02-03T05:16:16.948Z,-18
2023-02-03T05:17:23.100Z,-18
2023-02-03T05:18:29.371Z,-18
2023-02-03T05:19:35.624Z,-18
2023-02-03T05:20:41.925Z,-18
2023-02-03T05:21:48.246Z,-18
2023-02-03T05:22:53.583Z,-18
2023-02-03T05:23:58.773Z,-18
2023-02-03T05:25:04.061Z,-18
2023-02-03T05:26:09.440Z,-19
2023-02-03T05:27:15.693Z,-18
2023-02-03T05:28:21.994Z,-19
2023-02-03T05:29:28.212Z,-18
2023-02-03T05:30:34.523Z,-19
2023-02-03T05:31:40.751Z,-18
2023-02-03T05:32:46.957Z,-18
2023-02-03T05:34:59.545Z,-18
2023-02-03T05:36:05.907Z,-18
2023-02-03T05:37:12.144Z,-20
2023-02-03T05:38:18.328Z,-19
2023-02-03T05:39:24.699Z,-17
2023-02-03T05:40:29.941Z,-18
2023-02-03T05:41:36.217Z,-18
2023-02-03T05:42:42.427Z,-18
2023-02-03T05:43:48.854Z,-18
2023-02-03T05:44:54.982Z,-18
2023-02-03T05:46:01.240Z,-18
2023-02-03T05:47:07.521Z,-18
2023-02-03T05:48:13.808Z,-18
2023-02-03T05:49:20.119Z,-18
2023-02-03T05:50:26.336Z,-21
2023-02-03T05:51:32.611Z,-21
2023-02-03T05:52:38.921Z,-18
2023-02-03T05:53:45.146Z,-18
2023-02-03T05:54:50.441Z,-19
2023-02-03T05:55:56.763Z,-19
2023-02-03T05:57:02.994Z,-19
2023-02-03T05:58:09.274Z,-18
2023-02-03T05:59:15.523Z,-18
2023-02-03T06:00:21.796Z,-19
2023-02-03T06:01:28.060Z,-17
2023-02-03T06:02:34.468Z,-19
2023-02-03T06:03:40.680Z,-18
2023-02-03T06:04:46.888Z,-18
2023-02-03T06:05:53.172Z,-18
2023-02-03T06:06:59.487Z,-19
2023-02-03T06:08:05.709Z,-18
2023-02-03T06:09:10.997Z,-18
2023-02-03T06:10:16.282Z,-20
2023-02-03T06:11:21.585Z,-19
2023-02-03T06:12:26.943Z,-19
2023-02-03T06:13:33.163Z,-18
2023-02-03T06:14:39.415Z,-19
2023-02-03T06:15:45.694Z,-18
2023-02-03T06:16:52.094Z,-18
2023-02-03T06:17:58.251Z,-19
2023-02-03T06:19:04.505Z,-18
2023-02-03T06:20:10.784Z,-19
2023-02-03T06:21:17.113Z,-20
2023-02-03T06:22:23.351Z,-18
2023-02-03T06:23:29.630Z,-20
2023-02-03T06:24:35.862Z,-20
2023-02-03T06:25:42.137Z,-20
2023-02-03T06:26:47.472Z,-19
2023-02-03T06:27:53.722Z,-18
2023-02-03T06:28:59.988Z,-19
2023-02-03T06:30:06.256Z,-19
2023-02-03T06:31:12.620Z,-19
2023-02-03T06:32:18.908Z,-18
2023-02-03T06:33:25.177Z,-18
2023-02-03T06:34:31.393Z,-19
2023-02-03T06:35:37.624Z,-19
2023-02-03T06:36:42.963Z,-19
2023-02-03T06:37:49.256Z,-19
2023-02-03T06:38:54.570Z,-19
2023-02-03T06:39:59.795Z,-19
2023-02-03T06:41:06.126Z,-18
2023-02-03T06:42:12.391Z,-19
2023-02-03T06:43:18.705Z,-18
2023-02-03T06:44:24.986Z,-19
2023-02-03T06:45:31.201Z,-18
2023-02-03T06:46:37.549Z,-20
2023-02-03T06:47:43.685Z,-20
2023-02-03T06:48:50.123Z,-19
2023-02-03T06:49:56.278Z,-18
2023-02-03T06:51:02.487Z,-19
2023-02-03T06:52:08.753Z,-19
2023-02-03T06:53:15.090Z,-20
2023-02-03T06:54:20.343Z,-21
2023-02-03T06:55:26.749Z,-19
2023-02-03T06:56:32.853Z,-18
2023-02-03T06:57:39.149Z,-19
2023-02-03T06:58:45.460Z,-19
2023-02-03T06:59:51.686Z,-19
2023-02-03T07:00:58.062Z,-19
2023-02-03T07:02:04.288Z,-20
2023-02-03T07:03:09.513Z,-20
2023-02-03T07:04:15.810Z,-19
2023-02-03T07:05:22.067Z,-19
2023-02-03T07:06:28.337Z,-18
2023-02-03T07:07:34.608Z,-19
2023-02-03T07:08:40.928Z,-18
2023-02-03T07:09:47.150Z,-20
2023-02-03T07:10:53.511Z,-19
2023-02-03T07:11:59.799Z,-20
2023-02-03T07:13:05.964Z,-18
2023-02-03T07:14:12.232Z,-19
2023-02-03T07:15:18.502Z,-18
2023-02-03T07:16:24.782Z,-21
2023-02-03T07:17:30.073Z,-21
2023-02-03T07:18:36.345Z,-19
2023-02-03T07:19:42.629Z,-19
2023-02-03T07:20:48.883Z,-19
2023-02-03T07:21:55.216Z,-18
2023-02-03T07:23:01.518Z,-18
2023-02-03T07:24:07.706Z,-19
2023-02-03T07:25:13.975Z,-21
2023-02-03T07:26:20.249Z,-18
2023-02-03T07:27:26.598Z,-18
2023-02-03T07:28:32.798Z,-19
2023-02-03T07:29:39.061Z,-18
2023-02-03T07:30:45.469Z,-18
2023-02-03T07:31:50.744Z,-18
2023-02-03T07:32:56.961Z,-18
2023-02-03T07:34:03.265Z,-19
2023-02-03T07:35:09.496Z,-18
2023-02-03T07:36:14.870Z,-20
2023-02-03T07:37:20.063Z,-20
2023-02-03T07:38:26.305Z,-19
2023-02-03T07:39:32.574Z,-20
2023-02-03T07:40:37.941Z,-18
2023-02-03T07:41:43.211Z,-18
2023-02-03T07:42:49.440Z,-18
2023-02-03T07:43:55.698Z,-19
2023-02-03T07:45:02.009Z,-18
2023-02-03T07:46:08.290Z,-18
2023-02-03T07:47:14.530Z,-13
2023-02-03T07:48:20.795Z,-18
2023-02-03T07:49:27.063Z,-18
2023-02-03T07:50:33.328Z,-18
2023-02-03T07:51:39.609Z,-18
2023-02-03T07:52:45.892Z,-20
2023-02-03T07:53:52.160Z,-18
2023-02-03T07:54:58.424Z,-18
2023-02-03T07:56:03.711Z,-19
2023-02-03T07:57:09.985Z,-19
2023-02-03T07:58:16.264Z,-18
2023-02-03T07:59:22.536Z,-18
2023-02-03T08:00:28.800Z,-18
2023-02-03T08:01:35.092Z,-18
2023-02-03T08:02:41.557Z,-20
2023-02-03T08:03:46.761Z,-18
2023-02-03T08:04:51.937Z,-18
2023-02-03T08:05:58.332Z,-18
2023-02-03T08:07:04.479Z,-19
2023-02-03T08:08:10.835Z,-20
2023-02-03T08:09:17.053Z,-17
2023-02-03T08:10:22.346Z,-18
2023-02-03T08:11:27.776Z,-18
2023-02-03T08:12:33.889Z,-18
2023-02-03T08:13:40.216Z,-17
2023-02-03T08:14:46.431Z,-18
2023-02-03T08:15:52.695Z,-18
2023-02-03T08:16:58.979Z,-18
2023-02-03T08:18:05.271Z,-19
2023-02-03T08:19:11.514Z,-19
2023-02-03T08:20:17.775Z,-19
2023-02-03T08:21:24.062Z,-18
2023-02-03T08:22:30.355Z,-19
2023-02-03T08:23:36.594Z,-18
2023-02-03T08:24:42.871Z,-18
2023-02-03T08:25:49.142Z,-18
2023-02-03T08:26:55.427Z,-19
2023-02-03T08:28:00.730Z,-18
2023-02-03T08:29:06.978Z,-19
2023-02-03T08:30:13.244Z,-18
2023-02-03T08:31:19.711Z,-18
2023-02-03T08:32:25.873Z,-19
2023-02-03T08:33:31.266Z,-18
2023-02-03T08:34:36.456Z,-18
2023-02-03T08:35:41.765Z,-18
2023-02-03T08:36:47.081Z,-18
2023-02-03T08:37:53.251Z,-18
2023-02-03T08:38:59.543Z,-18
2023-02-03T08:40:05.826Z,-19
2023-02-03T08:41:12.073Z,-18
2023-02-03T08:42:18.336Z,-19
2023-02-03T08:43:24.642Z,-18
2023-02-03T08:44:30.880Z,-18
2023-02-03T08:45:37.193Z,-18
2023-02-03T08:46:43.512Z,-18
2023-02-03T08:47:49.767Z,-18
2023-02-03T08:48:55.995Z,-18
2023-02-03T08:50:02.298Z,-18
2023-02-03T08:51:07.601Z,-18
2023-02-03T08:53:20.153Z,-18
2023-02-03T08:54:26.424Z,-18
2023-02-03T08:55:32.668Z,-18
2023-02-03T08:56:38.965Z,-17
2023-02-03T08:57:45.214Z,-18
2023-02-03T08:58:51.596Z,-18
2023-02-03T08:59:57.819Z,-19
2023-02-03T09:01:04.042Z,-18
2023-02-03T09:02:10.250Z,-19
2023-02-03T09:03:16.585Z,-18
2023-02-03T09:04:22.789Z,-19
2023-02-03T09:05:28.071Z,-18
2023-02-03T09:06:34.345Z,-20
2023-02-03T09:07:40.624Z,-19
2023-02-03T09:08:46.979Z,-15
2023-02-03T09:09:53.187Z,-19
2023-02-03T09:10:59.620Z,-18
2023-02-03T09:12:05.710Z,-18
2023-02-03T09:13:11.994Z,-18
2023-02-03T09:14:18.289Z,-18
2023-02-03T09:15:24.526Z,-17
2023-02-03T09:16:30.859Z,-19
2023-02-03T09:17:37.124Z,-18
2023-02-03T09:18:43.346Z,-18
2023-02-03T09:19:48.627Z,-20
2023-02-03T09:20:54.946Z,-18
2023-02-03T09:22:01.184Z,-18
2023-02-03T09:23:06.462Z,-18
2023-02-03T09:24:11.782Z,-18
2023-02-03T09:25:18.158Z,-18
2023-02-03T09:26:24.300Z,-18
2023-02-03T09:27:29.619Z,-17
2023-02-03T09:28:34.999Z,-16
2023-02-03T09:29:41.187Z,-17
2023-02-03T09:30:47.559Z,-18
2023-02-03T09:31:53.704Z,-17
2023-02-03T09:33:00.171Z,-18
2023-02-03T09:34:06.380Z,-17
2023-02-03T09:35:12.668Z,-17
2023-02-03T09:36:18.898Z,-16
2023-02-03T09:37:25.238Z,-17
2023-02-03T09:38:31.505Z,-18
2023-02-03T09:39:37.621Z,-17
2023-02-03T09:40:43.969Z,-17
2023-02-03T09:41:50.321Z,-17
2023-02-03T09:42:55.608Z,-18
2023-02-03T09:44:01.830Z,-18
2023-02-03T09:45:08.098Z,-18
2023-02-03T09:46:14.322Z,-17
2023-02-03T09:47:20.636Z,-18
2023-02-03T09:48:26.845Z,-17
2023-02-03T09:49:33.201Z,-18
2023-02-03T09:50:39.513Z,-17
2023-02-03T09:51:45.721Z,-18
2023-02-03T09:52:51.976Z,-17
2023-02-03T09:53:58.154Z,-18
2023-02-03T09:55:04.477Z,-16
2023-02-03T09:56:10.803Z,-16
2023-02-03T09:57:15.987Z,-18
2023-02-03T09:58:22.339Z,-18
2023-02-03T09:59:28.534Z,-16
2023-02-03T10:00:34.856Z,-16
2023-02-03T10:01:41.082Z,-17
2023-02-03T10:02:47.378Z,-16
2023-02-03T10:03:53.736Z,-17
2023-02-03T10:04:59.927Z,-16
2023-02-03T10:06:06.195Z,-18
2023-02-03T10:07:12.439Z,-17
2023-02-03T10:08:18.772Z,-17
2023-02-03T10:09:25.041Z,-18
2023-02-03T10:10:31.278Z,-17
2023-02-03T10:11:36.632Z,-18
2023-02-03T10:12:42.909Z,-18
2023-02-03T10:13:49.139Z,-17
2023-02-03T10:14:55.468Z,-17
2023-02-03T10:16:01.737Z,-15
2023-02-03T10:17:07.899Z,-17
2023-02-03T10:18:14.225Z,-18
2023-02-03T10:19:20.446Z,-17
2023-02-03T10:20:26.736Z,-18
2023-02-03T10:21:33.068Z,-17
2023-02-03T10:22:39.264Z,-17
2023-02-03T10:23:45.565Z,-17
2023-02-03T10:24:51.852Z,-17
2023-02-03T10:25:57.115Z,-17
2023-02-03T10:27:03.501Z,-17
2023-02-03T10:28:09.632Z,-16
2023-02-03T10:29:15.900Z,-17
2023-02-03T10:30:22.179Z,-18
2023-02-03T10:31:28.475Z,-18
2023-02-03T10:32:34.848Z,-16
2023-02-03T10:33:41.064Z,-16
2023-02-03T10:34:47.288Z,-15
2023-02-03T10:35:53.531Z,-16
2023-02-03T10:36:59.806Z,-17
2023-02-03T10:38:06.125Z,-17
2023-02-03T10:39:12.410Z,-16
2023-02-03T10:40:17.710Z,-17
2023-02-03T10:41:23.930Z,-15
2023-02-03T10:42:30.262Z,-15
2023-02-03T10:43:36.499Z,-17
2023-02-03T10:44:41.764Z,-17
2023-02-03T10:45:47.172Z,-17
2023-02-03T10:46:52.357Z,-17
2023-02-03T10:47:57.754Z,-17
2023-02-03T10:49:04.024Z,-15
2023-02-03T10:50:10.279Z,-16
2023-02-03T10:51:16.575Z,-16
2023-02-03T10:52:22.748Z,-16
2023-02-03T10:53:29.057Z,-13
2023-02-03T10:54:35.371Z,-16
2023-02-03T10:55:41.542Z,-17
2023-02-03T10:56:47.820Z,-16
2023-02-03T10:57:54.098Z,-18
2023-02-03T10:59:00.433Z,-16
2023-02-03T11:00:06.659Z,-16
2023-02-03T11:01:12.987Z,-16
2023-02-03T11:02:18.191Z,-16
2023-02-03T11:03:24.525Z,-16
2023-02-03T11:04:30.751Z,-16
2023-02-03T11:05:37.036Z,-16
2023-02-03T11:06:43.287Z,-16
2023-02-03T11:07:49.563Z,-15
2023-02-03T11:08:55.866Z,-15
2023-02-03T11:10:01.128Z,-17
2023-02-03T11:11:07.442Z,-16
2023-02-03T11:12:12.691Z,-16
2023-02-03T11:13:17.997Z,-16
2023-02-03T11:14:24.252Z,-15
2023-02-03T11:15:30.646Z,-15
2023-02-03T11:16:36.804Z,-15
2023-02-03T11:17:43.156Z,-16
2023-02-03T11:18:49.355Z,-15
2023-02-03T11:19:55.714Z,-16
2023-02-03T11:21:01.883Z,-15
2023-02-03T11:22:08.161Z,-15
2023-02-03T11:23:14.435Z,-16
2023-02-03T11:24:20.704Z,-15
2023-02-03T11:25:27.036Z,-15
2023-02-03T11:26:33.350Z,-15
2023-02-03T11:27:38.591Z,-15
2023-02-03T11:28:44.798Z,-16
2023-02-03T11:29:51.069Z,-15
2023-02-03T11:30:57.356Z,-15
2023-02-03T11:32:03.725Z,-15
2023-02-03T11:33:09.949Z,-15
2023-02-03T11:34:16.177Z,-15
2023-02-03T11:35:21.464Z,-16
2023-02-03T11:36:26.817Z,-15
2023-02-03T11:37:33.094Z,-14
2023-02-03T11:38:39.291Z,-15
2023-02-03T11:39:45.570Z,-15
2023-02-03T11:40:51.934Z,-15
2023-02-03T11:41:57.249Z,-15
2023-02-03T11:43:02.447Z,-15
2023-02-03T11:44:08.698Z,-15
2023-02-03T11:45:15.016Z,-14
2023-02-03T11:46:21.291Z,-15
2023-02-03T11:47:27.518Z,-15
2023-02-03T11:48:33.812Z,-15
2023-02-03T11:49:40.113Z,-15
2023-02-03T11:50:46.325Z,-15
2023-02-03T11:51:52.598Z,-15
2023-02-03T11:52:58.868Z,-15
2023-02-03T11:54:05.157Z,-15
2023-02-03T11:55:11.421Z,-15
2023-02-03T11:56:17.694Z,-14
2023-02-03T11:57:22.978Z,-15
2023-02-03T11:58:29.263Z,-14
2023-02-03T11:59:35.523Z,-15
2023-02-03T12:00:41.793Z,-15
2023-02-03T12:01:48.090Z,-14
2023-02-03T12:02:54.360Z,-15
2023-02-03T12:04:00.668Z,-15
2023-02-03T12:05:06.880Z,-14
2023-02-03T12:06:13.177Z,-14
2023-02-03T12:07:19.431Z,-12
2023-02-03T12:08:25.710Z,-15
2023-02-03T12:09:31.964Z,-14
2023-02-03T12:10:38.254Z,-15
2023-02-03T12:11:43.526Z,-15
2023-02-03T12:12:49.825Z,-13
2023-02-03T12:13:55.215Z,-15
2023-02-03T12:15:00.452Z,-15
2023-02-03T12:16:06.664Z,-15
2023-02-03T12:17:12.920Z,-15
2023-02-03T12:18:18.237Z,-15
2023-02-03T12:19:23.521Z,-16
2023-02-03T12:20:29.867Z,-15
2023-02-03T12:21:36.067Z,-15
2023-02-03T12:22:42.326Z,-14
2023-02-03T12:23:48.603Z,-15
2023-02-03T12:24:54.873Z,-15
2023-02-03T12:26:01.156Z,-15
2023-02-03T12:27:07.493Z,-12
2023-02-03T12:28:13.693Z,-15
2023-02-03T12:29:20.015Z,-13
2023-02-03T12:30:26.239Z,-13
2023-02-03T12:31:32.506Z,-14
2023-02-03T12:32:38.785Z,-14
2023-02-03T12:33:44.067Z,-14
2023-02-03T12:34:50.417Z,-14
2023-02-03T12:35:56.611Z,-13
2023-02-03T12:37:02.891Z,-15
2023-02-03T12:38:09.156Z,-15
2023-02-03T12:39:15.441Z,-14
2023-02-03T12:40:21.698Z,-15
2023-02-03T12:41:27.997Z,-13
2023-02-03T12:42:33.269Z,-15
2023-02-03T12:43:38.580Z,-13
2023-02-03T12:44:44.828Z,-12
2023-02-03T12:45:50.124Z,-15
2023-02-03T12:46:55.419Z,-13
2023-02-03T12:48:01.687Z,-13
2023-02-03T12:49:07.963Z,-15
2023-02-03T12:50:14.249Z,-15
2023-02-03T12:51:20.599Z,-13
2023-02-03T12:52:26.771Z,-14
2023-02-03T12:53:33.058Z,-15
2023-02-03T12:54:39.313Z,-14
2023-02-03T12:55:45.692Z,-14
2023-02-03T12:56:51.872Z,-15
2023-02-03T12:57:58.134Z,-14
2023-02-03T12:59:04.405Z,-13
2023-02-03T13:00:10.739Z,-12
2023-02-03T13:01:16.981Z,-13
2023-02-03T13:02:23.223Z,-14
2023-02-03T13:03:29.519Z,-13
2023-02-03T13:04:34.827Z,-12
2023-02-03T13:05:41.058Z,-14
2023-02-03T13:06:47.340Z,-13
2023-02-03T13:07:53.687Z,-14
2023-02-03T13:08:59.880Z,-14
2023-02-03T13:10:05.174Z,-13
2023-02-03T13:11:10.450Z,-13
2023-02-03T13:12:16.730Z,-12
2023-02-03T13:13:23.035Z,-13
2023-02-03T13:14:28.302Z,-14
2023-02-03T13:15:33.632Z,-12
2023-02-03T13:16:39.867Z,-13
2023-02-03T13:17:46.133Z,-12
2023-02-03T13:18:52.405Z,-12
2023-02-03T13:19:58.671Z,-12
2023-02-03T13:21:04.944Z,-12
2023-02-03T13:22:11.268Z,-13
2023-02-03T13:23:17.496Z,-12
2023-02-03T13:24:23.754Z,-13
2023-02-03T13:25:30.096Z,-12
2023-02-03T13:26:36.302Z,-13
2023-02-03T13:27:42.571Z,-14
2023-02-03T13:28:48.904Z,-14
2023-02-03T13:29:54.134Z,-13
2023-02-03T13:31:00.433Z,-14
2023-02-03T13:32:06.698Z,-13
2023-02-03T13:33:13.322Z,-12
2023-02-03T13:34:19.213Z,-15
2023-02-03T13:35:25.552Z,-14
2023-02-03T13:36:31.763Z,-14
2023-02-03T13:37:37.113Z,-14
2023-02-03T13:38:42.361Z,-15
2023-02-03T13:39:47.653Z,-13
2023-02-03T13:40:54.042Z,-14
2023-02-03T13:41:59.252Z,-14
2023-02-03T13:43:05.483Z,-14
2023-02-03T13:44:11.752Z,-15
2023-02-03T13:45:18.039Z,-15
2023-02-03T13:46:24.300Z,-14
2023-02-03T13:47:30.578Z,-15
2023-02-03T13:48:36.891Z,-14
2023-02-03T13:49:43.150Z,-15
2023-02-03T13:50:49.391Z,-13
2023-02-03T13:51:55.733Z,-15
2023-02-03T13:53:01.954Z,-14
2023-02-03T13:54:08.249Z,-15
2023-02-03T13:55:14.460Z,-14
2023-02-03T13:56:19.809Z,-15
2023-02-03T13:57:26.029Z,-15
2023-02-03T13:58:32.354Z,-15
2023-02-03T13:59:38.602Z,-15
2023-02-03T14:00:44.841Z,-15
2023-02-03T14:01:51.220Z,-14
2023-02-03T14:02:57.410Z,-15
2023-02-03T14:04:03.671Z,-14
2023-02-03T14:05:09.921Z,-15
2023-02-03T14:06:16.207Z,-15
2023-02-03T14:07:22.489Z,-14
2023-02-03T14:08:28.743Z,-14
2023-02-03T14:09:35.024Z,-15
2023-02-03T14:10:40.322Z,-15
2023-02-03T14:11:46.585Z,-15
2023-02-03T14:12:52.866Z,-15
2023-02-03T14:13:59.119Z,-15
2023-02-03T14:15:05.404Z,-15
2023-02-03T14:16:11.721Z,-15
2023-02-03T14:17:17.974Z,-15
2023-02-03T14:18:24.204Z,-13
2023-02-03T14:19:30.483Z,-18
2023-02-03T14:20:36.749Z,-15
2023-02-03T14:21:43.011Z,-15
2023-02-03T14:22:49.283Z,-14
2023-02-03T14:23:55.563Z,-16
2023-02-03T14:25:00.850Z,-15
2023-02-03T14:26:06.142Z,-13
2023-02-03T14:27:12.486Z,-15
2023-02-03T14:28:18.689Z,-16
2023-02-03T14:29:24.985Z,-16
2023-02-03T14:30:31.239Z,-15
2023-02-03T14:31:37.592Z,-15
2023-02-03T14:32:43.835Z,-16
2023-02-03T14:33:50.063Z,-18
2023-02-03T14:34:56.362Z,-15
2023-02-03T14:36:02.597Z,-15
2023-02-03T14:37:08.877Z,-17
2023-02-03T14:38:15.132Z,-15
2023-02-03T14:39:21.437Z,-15
2023-02-03T14:40:26.697Z,-15
2023-02-03T14:41:32.999Z,-15
2023-02-03T14:42:39.233Z,-16
2023-02-03T14:43:45.524Z,-15
2023-02-03T14:44:51.796Z,-15
2023-02-03T14:45:58.058Z,-15
2023-02-03T14:47:04.325Z,-15
2023-02-03T14:48:10.607Z,-16
2023-02-03T14:49:16.877Z,-15
2023-02-03T14:50:23.165Z,-15
2023-02-03T14:51:29.538Z,-16
2023-02-03T14:52:35.777Z,-18
2023-02-03T14:53:41.952Z,-15
2023-02-03T14:54:48.236Z,-15
2023-02-03T14:55:53.519Z,-15
2023-02-03T14:56:59.781Z,-15
2023-02-03T14:58:06.089Z,-14
2023-02-03T14:59:12.325Z,-16
2023-02-03T15:00:18.612Z,-15
2023-02-03T15:01:24.881Z,-15
2023-02-03T15:02:31.246Z,-16
2023-02-03T15:03:37.440Z,-16
2023-02-03T15:04:43.685Z,-15
2023-02-03T15:05:49.960Z,-16
2023-02-03T15:06:56.233Z,-16
2023-02-03T15:08:02.495Z,-15
2023-02-03T15:09:08.781Z,-16
2023-02-03T15:10:14.069Z,-15
2023-02-03T15:11:20.337Z,-17
2023-02-03T15:12:26.606Z,-16
2023-02-03T15:13:32.900Z,-16